Time,TemperatureF,DewpointF,PressureIn,WindDirection,WindDirectionDegrees,WindSpeedMPH,WindSpeedGustMPH,Humidity,HourlyPrecipIn,Conditions,Clouds,dailyrainin,SoftwareType,DateUTC
2013-08-21 00:13:00,75.0,71.0,29.76,SSE,168,0.0,0.0,88,-99.99,,,-99.99,,2013-08-21 05:13:00,
2013-08-21 00:23:00,76.0,72.0,29.75,SSE,165,0.0,0.0,86,-99.99,,,-99.99,,2013-08-21 05:23:00,
2013-08-21 00:43:00,76.0,72.0,29.75,SSE,167,0.0,0.0,87,-99.99,,,-99.99,,2013-08-21 05:43:00,
2013-08-21 00:52:00,76.0,72.0,29.75,SSE,158,0.0,0.0,86,-99.99,,,-99.99,,2013-08-21 05:52:00,
2013-08-21 01:12:00,75.0,71.0,29.75,SE,143,0.0,0.0,87,-99.99,,,-99.99,,2013-08-21 06:12:00,
2013-08-21 01:22:00,75.0,71.0,29.75,South,174,0.0,0.0,87,-99.99,,,-99.99,,2013-08-21 06:22:00,
2013-08-21 01:42:00,74.0,70.0,29.75,South,175,0.0,0.0,88,-99.99,,,-99.99,,2013-08-21 06:42:00,
2013-08-21 01:52:00,74.0,71.0,29.75,SSE,167,0.0,0.0,89,-99.99,,,-99.99,,2013-08-21 06:52:00,
2013-08-21 02:11:00,73.0,70.0,29.75,SSW,197,0.0,0.0,90,-99.99,,,-99.99,,2013-08-21 07:11:00,
2013-08-21 02:22:00,73.0,70.0,29.75,SW,224,0.0,0.0,91,-99.99,,,-99.99,,2013-08-21 07:22:00,
2013-08-21 02:42:00,72.0,69.0,29.75,SW,230,0.0,0.0,91,-99.99,,,-99.99,,2013-08-21 07:42:00,
2013-08-21 02:53:00,72.0,70.0,29.75,SE,144,0.0,0.0,92,-99.99,,,-99.99,,2013-08-21 07:53:00,
2013-08-21 03:03:00,72.0,70.0,29.75,SE,144,0.0,0.0,92,-99.99,,,-99.99,,2013-08-21 08:03:00,
2013-08-21 03:12:00,72.0,70.0,29.75,SE,144,0.0,0.0,92,-99.99,,,-99.99,,2013-08-21 08:12:00,
2013-08-21 03:22:00,72.0,70.0,29.75,SSE,148,0.0,0.0,93,-99.99,,,-99.99,,2013-08-21 08:22:00,
2013-08-21 03:32:00,72.0,70.0,29.75,SSE,148,0.0,0.0,93,-99.99,,,-99.99,,2013-08-21 08:32:00,
2013-08-21 03:43:00,72.0,70.0,29.75,SSE,148,0.0,0.0,93,-99.99,,,-99.99,,2013-08-21 08:43:00,
2013-08-21 03:52:00,71.0,69.0,29.75,South,189,0.0,0.0,94,-99.99,,,-99.99,,2013-08-21 08:52:00,
2013-08-21 04:11:00,71.0,69.0,29.74,South,172,0.0,0.0,94,-99.99,,,-99.99,,2013-08-21 09:11:00,
2013-08-21 04:22:00,71.0,69.0,29.74,SSE,167,0.0,0.0,94,-99.99,,,-99.99,,2013-08-21 09:22:00,
2013-08-21 04:43:00,71.0,69.0,29.74,South,189,0.0,0.0,93,-99.99,,,-99.99,,2013-08-21 09:43:00,
2013-08-21 04:53:00,71.0,69.0,29.74,South,189,0.0,0.0,93,-99.99,,,-99.99,,2013-08-21 09:53:00,
2013-08-21 05:13:00,71.0,69.0,29.73,SSW,197,0.0,0.0,92,-99.99,,,-99.99,,2013-08-21 10:13:00,
2013-08-21 05:23:00,71.0,69.0,29.73,SW,216,0.0,0.0,93,-99.99,,,-99.99,,2013-08-21 10:23:00,
2013-08-21 05:43:00,71.0,69.0,29.73,SW,236,0.0,0.0,92,-99.99,,,-99.99,,2013-08-21 10:43:00,
2013-08-21 05:52:00,71.0,69.0,29.73,SE,144,0.0,0.0,92,-99.99,,,-99.99,,2013-08-21 10:52:00,
2013-08-21 06:12:00,71.0,69.0,29.72,SSW,205,0.0,0.0,93,-99.99,,,-99.99,,2013-08-21 11:12:00,
2013-08-21 06:22:00,71.0,69.0,29.72,SSW,208,0.0,0.0,93,-99.99,,,-99.99,,2013-08-21 11:22:00,
2013-08-21 06:42:00,71.0,69.0,29.74,SW,229,0.0,0.0,93,-99.99,,,-99.99,,2013-08-21 11:42:00,
2013-08-21 06:52:00,71.0,69.0,29.74,SSE,162,0.0,0.0,92,-99.99,,,-99.99,,2013-08-21 11:52:00,
2013-08-21 07:12:00,71.0,69.0,29.75,SE,139,0.0,0.0,92,-99.99,,,-99.99,,2013-08-21 12:12:00,
2013-08-21 07:22:00,72.0,69.0,29.75,SW,214,0.0,0.0,91,-99.99,,,-99.99,,2013-08-21 12:22:00,
2013-08-21 07:42:00,72.0,69.0,29.75,South,176,0.0,0.0,91,-99.99,,,-99.99,,2013-08-21 12:42:00,
2013-08-21 07:52:00,72.0,69.0,29.75,SW,228,0.0,0.0,91,-99.99,,,-99.99,,2013-08-21 12:52:00,
2013-08-21 08:12:00,72.0,69.0,29.75,SW,228,0.0,0.0,91,-99.99,,,-99.99,,2013-08-21 13:12:00,
2013-08-21 08:21:00,72.0,69.0,29.75,SSW,197,0.0,0.0,91,-99.99,,,-99.99,,2013-08-21 13:21:00,
2013-08-21 08:42:00,73.0,70.0,29.75,SSW,207,0.0,0.0,89,-99.99,,,-99.99,,2013-08-21 13:42:00,
2013-08-21 08:52:00,73.0,70.0,29.75,SSW,207,0.0,0.0,89,-99.99,,,-99.99,,2013-08-21 13:52:00,
2013-08-21 09:11:00,74.0,70.0,29.76,SW,233,0.0,0.0,88,-99.99,,,-99.99,,2013-08-21 14:11:00,
2013-08-21 09:21:00,75.0,71.0,29.76,SW,231,0.0,0.0,87,-99.99,,,-99.99,,2013-08-21 14:21:00,
2013-08-21 09:42:00,76.0,72.0,29.76,SW,233,0.0,0.0,86,-99.99,,,-99.99,,2013-08-21 14:42:00,
2013-08-21 09:52:00,76.0,72.0,29.76,SW,233,0.0,0.0,86,-99.99,,,-99.99,,2013-08-21 14:52:00,
2013-08-21 10:01:00,76.0,72.0,29.76,SW,233,0.0,0.0,86,-99.99,,,-99.99,,2013-08-21 15:01:00,
2013-08-21 10:11:00,76.0,72.0,29.76,SW,233,0.0,0.0,86,-99.99,,,-99.99,,2013-08-21 15:11:00,
2013-08-21 10:43:00,79.0,73.0,29.77,SSW,204,0.0,0.0,81,-99.99,,,-99.99,,2013-08-21 15:43:00,
2013-08-21 10:55:00,80.0,74.0,29.77,SW,231,0.0,0.0,81,-99.99,,,-99.99,,2013-08-21 15:55:00,
2013-08-21 11:13:00,80.0,72.0,29.77,SW,232,0.0,0.0,77,-99.99,,,-99.99,,2013-08-21 16:13:00,
2013-08-21 11:24:00,80.0,72.0,29.77,WSW,239,0.0,0.0,78,-99.99,,,-99.99,,2013-08-21 16:24:00,
2013-08-21 11:43:00,80.0,72.0,29.78,SW,225,0.0,0.0,77,-99.99,,,-99.99,,2013-08-21 16:43:00,
2013-08-21 11:53:00,80.0,72.0,29.78,WSW,246,0.0,0.0,78,-99.99,,,-99.99,,2013-08-21 16:53:00,
2013-08-21 12:13:00,79.0,72.0,29.78,SW,215,0.0,0.0,80,-99.99,,,-99.99,,2013-08-21 17:13:00,
2013-08-21 12:23:00,80.0,72.0,29.78,WSW,255,0.0,0.0,78,-99.99,,,-99.99,,2013-08-21 17:23:00,
2013-08-21 12:43:00,82.0,73.0,29.78,WSW,245,0.0,0.0,75,-99.99,,,-99.99,,2013-08-21 17:43:00,
2013-08-21 12:53:00,82.0,73.0,29.78,WSW,245,0.0,0.0,75,-99.99,,,-99.99,,2013-08-21 17:53:00,
2013-08-21 13:02:00,82.0,73.0,29.78,WSW,245,0.0,0.0,75,-99.99,,,-99.99,,2013-08-21 18:02:00,
2013-08-21 13:12:00,82.0,73.0,29.78,WSW,245,0.0,0.0,75,-99.99,,,-99.99,,2013-08-21 18:12:00,
2013-08-21 13:22:00,83.0,74.0,29.78,SSW,203,0.0,0.0,75,-99.99,,,-99.99,,2013-08-21 18:22:00,
2013-08-21 13:42:00,82.0,73.0,29.80,SW,233,0.0,0.0,75,-99.99,,,-99.99,,2013-08-21 18:42:00,
2013-08-21 13:52:00,82.0,73.0,29.80,SW,233,0.0,0.0,75,-99.99,,,-99.99,,2013-08-21 18:52:00,
2013-08-21 14:12:00,81.0,74.0,29.79,West,259,0.0,0.0,80,-99.99,,,-99.99,,2013-08-21 19:12:00,
2013-08-21 14:22:00,81.0,74.0,29.79,West,259,0.0,0.0,80,-99.99,,,-99.99,,2013-08-21 19:22:00,
2013-08-21 14:52:00,81.0,74.0,29.81,WNW,287,0.0,0.0,79,-99.99,,,-99.99,,2013-08-21 19:52:00,
2013-08-21 15:11:00,80.0,74.0,29.81,West,278,0.0,0.0,82,-99.99,,,-99.99,,2013-08-21 20:11:00,
2013-08-21 15:22:00,80.0,74.0,29.81,West,259,0.0,0.0,82,-99.99,,,-99.99,,2013-08-21 20:22:00,
2013-08-21 15:52:00,80.0,74.0,29.81,WSW,252,0.0,0.0,83,-99.99,,,-99.99,,2013-08-21 20:52:00,
2013-08-21 16:12:00,80.0,73.0,29.81,West,279,0.0,0.0,80,-99.99,,,-99.99,,2013-08-21 21:12:00,
2013-08-21 16:21:00,80.0,73.0,29.81,West,279,0.0,0.0,80,-99.99,,,-99.99,,2013-08-21 21:21:00,
2013-08-21 16:55:00,79.0,73.0,29.82,West,262,0.0,0.0,83,-99.99,,,-99.99,,2013-08-21 21:55:00,
2013-08-21 17:14:00,80.0,74.0,29.80,SSE,167,0.0,0.0,82,-99.99,,,-99.99,,2013-08-21 22:14:00,
2013-08-21 17:24:00,80.0,73.0,29.80,SW,224,0.0,0.0,80,-99.99,,,-99.99,,2013-08-21 22:24:00,
2013-08-21 17:43:00,80.0,74.0,29.80,South,170,0.0,0.0,82,-99.99,,,-99.99,,2013-08-21 22:43:00,
2013-08-21 17:53:00,80.0,74.0,29.80,South,170,0.0,0.0,82,-99.99,,,-99.99,,2013-08-21 22:53:00,
2013-08-21 18:13:00,81.0,75.0,29.80,SSE,148,0.0,0.0,81,-99.99,,,-99.99,,2013-08-21 23:13:00,
2013-08-21 18:22:00,81.0,75.0,29.80,SSE,148,0.0,0.0,81,-99.99,,,-99.99,,2013-08-21 23:22:00,
2013-08-21 18:53:00,80.0,74.0,29.81,West,276,0.0,0.0,83,-99.99,,,-99.99,,2013-08-21 23:53:00,
2013-08-21 19:12:00,81.0,75.0,29.81,West,271,0.0,0.0,82,-99.99,,,-99.99,,2013-08-22 00:12:00,
2013-08-21 19:22:00,81.0,75.0,29.80,SW,228,0.0,0.0,82,-99.99,,,-99.99,,2013-08-22 00:22:00,
2013-08-21 19:42:00,80.0,74.0,29.81,WSW,241,0.0,0.0,83,-99.99,,,-99.99,,2013-08-22 00:42:00,
2013-08-21 19:52:00,80.0,74.0,29.81,WSW,241,0.0,0.0,83,-99.99,,,-99.99,,2013-08-22 00:52:00,
2013-08-21 20:11:00,78.0,74.0,29.82,WSW,241,0.0,0.0,87,-99.99,,,-99.99,,2013-08-22 01:11:00,
2013-08-21 20:22:00,78.0,74.0,29.82,WSW,241,0.0,0.0,87,-99.99,,,-99.99,,2013-08-22 01:22:00,
2013-08-21 20:42:00,76.0,73.0,29.84,SSW,207,0.0,0.0,91,-99.99,,,-99.99,,2013-08-22 01:42:00,
2013-08-21 20:52:00,76.0,73.0,29.84,SSW,196,0.0,0.0,91,-99.99,,,-99.99,,2013-08-22 01:52:00,
2013-08-21 21:12:00,76.0,73.0,29.83,ENE,61,0.0,0.0,91,-99.99,,,-99.99,,2013-08-22 02:12:00,
2013-08-21 21:22:00,76.0,73.0,29.83,NE,50,0.0,0.0,91,-99.99,,,-99.99,,2013-08-22 02:22:00,
2013-08-21 22:12:00,74.0,72.0,29.83,East,95,0.0,0.0,93,-99.99,,,-99.99,,2013-08-22 03:12:00,
2013-08-21 22:22:00,73.0,71.0,29.83,SE,124,0.0,0.0,94,-99.99,,,-99.99,,2013-08-22 03:22:00,
2013-08-21 22:45:00,73.0,71.0,29.84,SE,124,0.0,0.0,95,-99.99,,,-99.99,,2013-08-22 03:45:00,
2013-08-21 22:54:00,72.0,70.0,29.84,South,169,0.0,0.0,94,-99.99,,,-99.99,,2013-08-22 03:54:00,
2013-08-21 23:14:00,73.0,72.0,29.84,South,169,0.0,0.0,96,-99.99,,,-99.99,,2013-08-22 04:14:00,
2013-08-21 23:23:00,73.0,72.0,29.84,South,169,0.0,0.0,96,-99.99,,,-99.99,,2013-08-22 04:23:00,
2013-08-21 23:44:00,72.0,70.0,29.85,East,98,0.0,0.0,95,-99.99,,,-99.99,,2013-08-22 04:44:00,
2013-08-21 23:54:00,72.0,71.0,29.84,NNE,28,0.0,0.0,96,-99.99,,,-99.99,,2013-08-22 04:54:00,